This is the latest recevied weather packets stored in our database for station/object CE2KVL-1. If no packets are shown the sender has not sent any weather packets the latest 10 day(s).
| Time | Temp. | Humidity | Pressure | Rain* | Wind** | Luminosity | Snow |
|---|---|---|---|---|---|---|---|
| 1777557478 | 16.67° C | 60% | 1016.7 hPa | - | - | - | - |
| 1777557178 | 16.67° C | 59% | 1016.6 hPa | - | - | - | - |
| 1777556878 | 16.11° C | 57% | 1016.5 hPa | - | - | - | - |
| 1777556578 | 16.11° C | 57% | 1016.5 hPa | - | - | - | - |
| 1777556278 | 16.67° C | 55% | 1016.4 hPa | - | - | - | - |
| 1777555978 | 16.67° C | 56% | 1016.1 hPa | - | - | - | - |
| 1777555678 | 16.11° C | 56% | 1016.5 hPa | - | - | - | - |
| 1777555378 | 16.67° C | 56% | 1016.1 hPa | - | - | - | - |
| 1777555078 | 16.67° C | 62% | 1017.1 hPa | - | - | - | - |
| 1777554778 | 17.22° C | 67% | 1016.1 hPa | - | - | - | - |
| 1777554478 | 17.22° C | 68% | 1016 hPa | - | - | - | - |
| 1777554178 | 17.22° C | 71% | 1015.3 hPa | - | - | - | - |
| 1777553878 | 16.67° C | 69% | 1016.3 hPa | - | - | - | - |
| 1777553578 | 16.67° C | 70% | 1015.7 hPa | - | - | - | - |
| 1777553278 | 16.67° C | 71% | 1015.8 hPa | - | - | - | - |
| 1777552978 | 16.67° C | 77% | 1015.4 hPa | - | - | - | - |
| 1777552678 | 16.67° C | 77% | 1015.1 hPa | - | - | - | - |
| 1777552378 | 16.11° C | 75% | 1015.5 hPa | - | - | - | - |
| 1777552078 | 15.56° C | 70% | 1015.4 hPa | - | - | - | - |
| 1777551778 | 15° C | 70% | 1015.8 hPa | - | - | - | - |
| 1777551478 | 15° C | 68% | 1016 hPa | - | - | - | - |
| 1777551178 | 14.44° C | 68% | 1016.2 hPa | - | - | - | - |
| 1777550877 | 14.44° C | 68% | 1016.4 hPa | - | - | - | - |
| 1777550578 | 14.44° C | 69% | 1016.3 hPa | - | - | - | - |
| 1777550278 | 14.44° C | 71% | 1016.5 hPa | - | - | - | - |
* Rain since midnight (hover to see other rain measurements)
** Current wind speed in m/s (hover to see current wind gust speed)